Terminal Aerodrome Forecast
Issued by NWS

Home | Current Version | Previous Version | Graphics & Text | Print | Product List | Glossary On
Versions: 1 2 3 4 5 6 7 8 9 10 11 12 13 14 15 16 17 18 19
000
FTUS43 KABR 110500
TAFATY
TAF
KATY 110526Z 1106/1206 17010KT P6SM BKN060
     FM110900 VRB06KT 4SM BR OVC009
     FM111600 20006KT P6SM OVC015
     FM111800 21004KT P6SM OVC050
     FM112100 32005KT P6SM OVC250=

USA.gov is the U.S. government's official web portal to all federal, state and local government web resources and services.